Time;durP1;ratioP1;P1;durP2;ratioP2;P2;SDS_P1;SDS_P2;PMS_P1;PMS_P2;Temp;Humidity;BMP_temperature;BMP_pressure;BME280_temperature;BME280_humidity;BME280_pressure;Samples;Min_cycle;Max_cycle;Signal;HPM_P1;HPM_P2
2022/06/29 02:46:04;;;;;;;8.00;3.10;;;17.00;99.90;;;;;;5930782;23;88973;31
2022/06/29 02:48:29;;;;;;;9.65;2.42;;;17.00;99.90;;;;;;4852786;28;87394;-74
2022/06/29 02:50:55;;;;;;;5.32;2.25;;;17.00;99.90;;;;;;4860401;28;87728;-72
2022/06/29 02:53:21;;;;;;;5.85;2.60;;;17.00;99.90;;;;;;4855034;28;86604;-71
2022/06/29 02:55:46;;;;;;;6.20;2.78;;;17.00;99.90;;;;;;4860324;29;88455;-72
2022/06/29 02:58:12;;;;;;;5.15;2.28;;;17.00;99.90;;;;;;4860571;28;87865;-71
2022/06/29 03:00:38;;;;;;;7.28;2.60;;;17.00;99.90;;;;;;4861767;29;86837;-72
2022/06/29 03:03:04;;;;;;;6.43;2.55;;;17.00;99.90;;;;;;4861072;29;87266;-71
2022/06/29 03:05:29;;;;;;;7.22;2.25;;;17.00;99.90;;;;;;4861892;29;86958;-72
2022/06/29 03:07:55;;;;;;;7.68;2.35;;;17.00;99.90;;;;;;4859698;28;86963;-71
2022/06/29 03:10:21;;;;;;;5.50;1.70;;;17.00;99.90;;;;;;4855723;28;87514;-72
2022/06/29 03:12:46;;;;;;;6.68;1.83;;;17.00;99.90;;;;;;4859186;29;87163;-73
2022/06/29 03:15:12;;;;;;;8.77;3.22;;;17.00;99.90;;;;;;4861002;28;88211;-73
2022/06/29 03:17:38;;;;;;;8.40;2.78;;;17.00;99.90;;;;;;4860285;28;87812;-72
2022/06/29 03:20:05;;;;;;;8.07;2.67;;;17.00;99.90;;;;;;4849064;29;86783;-72
2022/06/29 03:22:33;;;;;;;6.63;2.22;;;17.00;99.90;;;;;;4848055;29;87621;-72
2022/06/29 03:24:59;;;;;;;5.78;2.42;;;17.00;99.90;;;;;;4859978;29;88208;-70
2022/06/29 03:27:25;;;;;;;7.55;1.80;;;17.10;99.90;;;;;;4860470;28;87079;-71
2022/06/29 03:29:51;;;;;;;4.60;1.90;;;17.10;99.90;;;;;;4861553;29;87041;-71
2022/06/29 03:32:17;;;;;;;6.03;2.08;;;17.20;99.90;;;;;;4860568;28;86385;-72
2022/06/29 03:34:43;;;;;;;7.07;2.13;;;17.20;99.90;;;;;;4859288;29;87265;-71
2022/06/29 03:37:08;;;;;;;5.70;1.85;;;17.20;99.90;;;;;;4867017;28;87156;-70
2022/06/29 03:39:35;;;;;;;3.55;2.00;;;17.20;99.90;;;;;;4860848;28;88000;-72
2022/06/29 03:42:01;;;;;;;7.82;2.08;;;17.20;99.90;;;;;;4853755;28;87115;-71
2022/06/29 03:44:27;;;;;;;7.45;2.15;;;17.20;99.90;;;;;;4857382;29;87121;-71
2022/06/29 03:46:53;;;;;;;8.00;2.55;;;17.30;99.90;;;;;;4868176;28;87918;-71
2022/06/29 03:49:18;;;;;;;8.02;1.80;;;17.20;99.90;;;;;;4911158;28;87204;-71
2022/06/29 03:51:44;;;;;;;8.55;2.53;;;17.30;99.90;;;;;;4899136;28;87133;-73
2022/06/29 03:54:09;;;;;;;5.97;1.63;;;17.30;99.90;;;;;;4888737;28;88909;-71
2022/06/29 03:56:35;;;;;;;7.13;2.22;;;17.30;99.90;;;;;;4895603;28;87980;-72
2022/06/29 03:59:01;;;;;;;5.78;1.63;;;17.30;99.90;;;;;;4892711;28;86947;-70
2022/06/29 04:01:26;;;;;;;4.70;1.90;;;17.40;99.90;;;;;;4894656;28;87432;-72
2022/06/29 04:03:52;;;;;;;6.55;2.10;;;17.40;99.90;;;;;;4893516;28;87947;-72
2022/06/29 04:06:18;;;;;;;5.10;1.98;;;17.40;99.90;;;;;;4900900;28;87109;-71
2022/06/29 04:08:44;;;;;;;4.03;2.15;;;17.50;99.90;;;;;;4900778;28;87398;-70
2022/06/29 04:13:55;;;;;;;4.03;1.80;;;17.50;99.90;;;;;;4898733;28;86998;-71
2022/06/29 04:16:21;;;;;;;7.72;1.95;;;17.60;99.90;;;;;;4900492;28;87953;-70
2022/06/29 04:18:46;;;;;;;4.65;1.92;;;17.60;99.90;;;;;;4900256;28;87019;-73
2022/06/29 04:21:12;;;;;;;4.32;1.85;;;17.70;99.90;;;;;;4901129;28;86482;-71
2022/06/29 04:23:38;;;;;;;6.38;1.50;;;17.70;99.90;;;;;;4902091;28;86972;-71
2022/06/29 04:26:03;;;;;;;5.05;1.63;;;17.80;99.90;;;;;;4899573;28;86863;-71
2022/06/29 04:28:29;;;;;;;4.72;1.77;;;17.80;99.90;;;;;;4899907;28;87984;-72
2022/06/29 04:30:56;;;;;;;3.58;1.00;;;17.90;99.90;;;;;;4900901;28;86684;-70
2022/06/29 04:33:21;;;;;;;7.32;2.00;;;17.90;99.90;;;;;;4899852;28;88093;-71
2022/06/29 04:35:47;;;;;;;6.45;1.77;;;17.90;99.90;;;;;;4900190;28;88078;-72
2022/06/29 04:38:13;;;;;;;4.18;1.33;;;17.90;99.90;;;;;;4900483;28;87041;-73
2022/06/29 04:40:38;;;;;;;5.43;1.20;;;17.90;99.90;;;;;;4905284;28;86926;-73
2022/06/29 04:43:04;;;;;;;6.00;2.00;;;18.00;99.90;;;;;;4898843;28;86896;-73
2022/06/29 04:48:14;;;;;;;5.13;1.90;;;18.10;99.90;;;;;;4899885;28;87035;-72
2022/06/29 04:50:40;;;;;;;6.22;1.90;;;18.20;99.90;;;;;;4899007;28;87123;-74
2022/06/29 04:53:06;;;;;;;5.32;2.88;;;18.20;99.90;;;;;;4898707;28;88260;-74
2022/06/29 04:55:31;;;;;;;3.67;1.60;;;18.30;99.90;;;;;;4898897;28;87841;-71
2022/06/29 04:57:57;;;;;;;4.93;1.55;;;18.40;99.90;;;;;;4910182;28;87085;-73
2022/06/29 05:00:23;;;;;;;6.70;1.63;;;18.60;99.90;;;;;;4895893;28;87077;-72
2022/06/29 05:02:48;;;;;;;7.13;1.70;;;18.70;99.90;;;;;;4897966;28;87139;-73
2022/06/29 05:05:14;;;;;;;6.03;1.90;;;18.80;99.90;;;;;;4900105;28;87237;-71
2022/06/29 05:07:40;;;;;;;7.25;2.00;;;18.80;99.90;;;;;;4899725;28;87083;-72
2022/06/29 05:10:06;;;;;;;5.88;1.92;;;18.80;99.90;;;;;;4897907;28;88028;-76
2022/06/29 05:12:32;;;;;;;7.57;2.30;;;18.90;99.90;;;;;;4898125;28;87395;-73
2022/06/29 05:14:58;;;;;;;9.82;2.03;;;18.90;99.90;;;;;;4894322;28;87675;-78
2022/06/29 05:17:23;;;;;;;7.47;2.55;;;19.00;99.90;;;;;;4896911;28;89113;-75
2022/06/29 05:19:49;;;;;;;5.40;2.20;;;19.10;99.90;;;;;;4900588;28;87501;-71
2022/06/29 05:22:15;;;;;;;8.27;2.20;;;19.10;99.90;;;;;;4900442;28;88127;-72
2022/06/29 05:24:40;;;;;;;6.15;1.98;;;19.10;99.90;;;;;;4901577;28;87014;-74
2022/06/29 05:27:06;;;;;;;5.18;2.00;;;19.10;99.90;;;;;;4901955;28;86929;-76
2022/06/29 05:29:33;;;;;;;5.72;2.17;;;19.10;99.90;;;;;;4901033;28;87079;-72
2022/06/29 05:31:59;;;;;;;8.18;2.40;;;19.00;99.90;;;;;;4898630;28;87642;-72
2022/06/29 05:34:24;;;;;;;8.82;3.53;;;19.00;99.90;;;;;;4895765;28;87892;-72
2022/06/29 05:36:50;;;;;;;8.00;3.13;;;18.90;99.90;;;;;;4901581;28;87057;-73
2022/06/29 05:39:16;;;;;;;7.38;2.03;;;18.90;99.90;;;;;;4905567;28;87157;-72
2022/06/29 05:41:41;;;;;;;5.03;2.08;;;19.00;99.90;;;;;;4899344;28;88619;-75
2022/06/29 05:44:07;;;;;;;7.88;1.88;;;19.00;99.90;;;;;;4894825;28;87735;-74
2022/06/29 05:46:33;;;;;;;4.78;2.28;;;19.10;99.90;;;;;;4898694;28;87067;-72
2022/06/29 05:48:59;;;;;;;11.15;2.30;;;19.10;99.90;;;;;;4898884;28;87169;-76
2022/06/29 05:51:25;;;;;;;4.55;2.03;;;19.10;99.90;;;;;;4896251;28;87215;-77
2022/06/29 05:53:50;;;;;;;7.35;2.15;;;19.00;99.90;;;;;;4900035;28;86862;-75
2022/06/29 05:56:17;;;;;;;6.30;2.13;;;18.90;99.90;;;;;;4905955;28;86960;-72
2022/06/29 05:58:43;;;;;;;8.07;1.70;;;18.90;99.90;;;;;;4895532;28;86284;-72
2022/06/29 06:01:09;;;;;;;6.70;2.08;;;18.90;99.90;;;;;;4891884;28;87241;-72
2022/06/29 06:03:38;;;;;;;5.65;1.75;;;19.00;99.90;;;;;;4899371;28;87704;-72
2022/06/29 06:06:04;;;;;;;5.00;2.10;;;19.00;99.90;;;;;;4897485;28;87958;-72
2022/06/29 06:08:29;;;;;;;7.45;2.10;;;19.30;99.90;;;;;;4898900;28;87002;-74
2022/06/29 06:10:55;;;;;;;8.90;2.03;;;19.50;99.90;;;;;;4901110;28;86735;-72
2022/06/29 06:13:21;;;;;;;6.00;2.10;;;19.80;99.90;;;;;;4895530;28;87373;-73
2022/06/29 06:15:47;;;;;;;9.07;2.35;;;20.20;99.90;;;;;;4899865;28;86978;-76
2022/06/29 06:18:13;;;;;;;7.43;1.75;;;20.50;99.90;;;;;;4899148;28;86889;-73
2022/06/29 06:20:39;;;;;;;6.97;1.58;;;20.70;99.90;;;;;;4899805;28;88250;-74
2022/06/29 06:23:06;;;;;;;5.68;2.08;;;20.90;99.90;;;;;;4900526;28;86900;-72
2022/06/29 06:25:33;;;;;;;6.50;1.80;;;21.10;99.90;;;;;;4900156;28;87387;-70
2022/06/29 06:28:00;;;;;;;3.88;1.40;;;21.20;99.90;;;;;;4899646;28;87093;-74
2022/06/29 06:30:26;;;;;;;7.75;1.73;;;21.30;99.90;;;;;;4899111;28;87978;-74
2022/06/29 06:32:52;;;;;;;7.60;1.65;;;21.40;99.90;;;;;;4899845;28;86919;-69
2022/06/29 06:35:19;;;;;;;5.50;1.40;;;21.50;99.90;;;;;;4900187;28;87089;-76
2022/06/29 06:37:46;;;;;;;4.53;1.00;;;21.80;99.90;;;;;;4900758;28;86719;-74
2022/06/29 06:42:56;;;;;;;7.82;1.60;;;22.40;99.90;;;;;;4899599;28;87061;-70
2022/06/29 06:45:22;;;;;;;6.20;1.80;;;22.50;99.30;;;;;;4899702;28;87380;-71
2022/06/29 06:47:48;;;;;;;6.07;1.48;;;22.80;96.80;;;;;;4900394;28;85791;-70
2022/06/29 06:50:14;;;;;;;5.80;1.42;;;23.00;96.10;;;;;;4899825;28;87572;-70
2022/06/29 06:52:39;;;;;;;10.30;1.40;;;23.10;93.60;;;;;;4900532;28;86949;-77
2022/06/29 06:55:05;;;;;;;6.35;1.50;;;23.10;94.50;;;;;;4900802;28;88421;-74
2022/06/29 06:57:31;;;;;;;6.18;1.50;;;23.00;94.10;;;;;;4899932;28;87712;-74
2022/06/29 06:59:56;;;;;;;4.18;1.33;;;23.30;94.00;;;;;;4905099;28;88176;-71
2022/06/29 07:02:22;;;;;;;4.43;1.65;;;23.60;93.10;;;;;;4898740;28;86919;-74
2022/06/29 07:04:48;;;;;;;4.22;1.65;;;23.50;93.30;;;;;;4899013;28;87652;-72
2022/06/29 07:07:14;;;;;;;6.10;0.93;;;23.50;92.90;;;;;;4899552;28;87040;-71
2022/06/29 07:09:40;;;;;;;5.28;1.52;;;23.50;92.50;;;;;;4899377;28;87059;-72
2022/06/29 07:12:07;;;;;;;6.57;1.48;;;23.50;91.80;;;;;;4899463;28;87772;-74
2022/06/29 07:14:32;;;;;;;7.03;1.80;;;23.30;91.50;;;;;;4898995;28;87561;-75
2022/06/29 07:16:58;;;;;;;5.30;1.80;;;23.20;90.80;;;;;;4898876;28;87159;-74
2022/06/29 07:19:24;;;;;;;5.53;2.10;;;23.00;90.50;;;;;;4897771;28;87878;-74
2022/06/29 07:21:50;;;;;;;6.35;1.52;;;22.90;91.20;;;;;;4899074;28;87275;-72
2022/06/29 07:24:15;;;;;;;7.88;2.33;;;22.80;92.50;;;;;;4898559;28;86773;-76
2022/06/29 07:26:41;;;;;;;8.57;2.22;;;22.60;92.40;;;;;;4899018;28;87084;-73
2022/06/29 07:29:07;;;;;;;6.72;2.05;;;22.40;91.90;;;;;;4899305;28;86852;-73
2022/06/29 07:31:33;;;;;;;4.85;1.75;;;22.50;92.20;;;;;;4898391;28;86942;-76
2022/06/29 07:33:58;;;;;;;7.13;1.90;;;22.30;92.50;;;;;;4897459;28;86864;-75
2022/06/29 07:36:25;;;;;;;7.43;2.38;;;22.30;93.10;;;;;;4899874;28;86708;-75
2022/06/29 07:38:52;;;;;;;7.50;1.98;;;22.30;93.80;;;;;;4898319;28;87381;-75
2022/06/29 07:41:18;;;;;;;8.63;2.40;;;22.20;93.00;;;;;;4898650;28;87700;-74
2022/06/29 07:43:44;;;;;;;5.45;2.38;;;22.20;93.70;;;;;;4897861;28;88019;-77
2022/06/29 07:46:10;;;;;;;5.68;2.20;;;22.10;92.70;;;;;;4898217;28;87074;-72
2022/06/29 07:48:36;;;;;;;8.93;2.35;;;22.10;93.90;;;;;;4898894;28;88120;-74
2022/06/29 07:51:02;;;;;;;7.38;1.60;;;22.40;93.30;;;;;;4898584;28;87018;-73
2022/06/29 07:53:28;;;;;;;11.23;2.40;;;22.80;93.40;;;;;;4897603;28;87662;-72
2022/06/29 07:55:54;;;;;;;7.03;2.20;;;23.10;93.30;;;;;;4898306;28;86980;-72
2022/06/29 07:58:21;;;;;;;3.40;1.65;;;23.40;90.50;;;;;;4891406;28;88293;-75
2022/06/29 08:00:47;;;;;;;5.40;2.17;;;23.30;89.30;;;;;;4898863;28;86055;-74
2022/06/29 08:03:13;;;;;;;9.98;2.00;;;23.30;90.70;;;;;;4903200;28;87075;-73
2022/06/29 08:05:40;;;;;;;7.30;1.50;;;23.50;89.00;;;;;;4898786;28;86839;-72
2022/06/29 08:08:06;;;;;;;9.90;3.05;;;23.50;88.30;;;;;;4897599;28;87961;-74
2022/06/29 08:10:32;;;;;;;5.38;2.10;;;23.20;89.70;;;;;;4898274;28;87233;-74
2022/06/29 08:12:59;;;;;;;4.18;2.22;;;23.50;90.90;;;;;;4898479;28;86732;-73
2022/06/29 08:15:26;;;;;;;10.57;1.63;;;23.90;88.90;;;;;;4898418;28;88460;-72
2022/06/29 08:17:52;;;;;;;4.28;2.13;;;24.00;87.70;;;;;;4898156;28;86962;-73
2022/06/29 08:20:19;;;;;;;5.85;2.20;;;24.40;88.50;;;;;;4898625;28;87085;-74
2022/06/29 08:22:45;;;;;;;5.00;2.20;;;24.80;86.50;;;;;;4898791;28;87027;-73
2022/06/29 08:25:11;;;;;;;8.80;2.80;;;24.90;81.30;;;;;;4898009;28;86179;-73
2022/06/29 08:27:38;;;;;;;8.43;2.42;;;24.60;82.00;;;;;;4898807;28;87384;-77
2022/06/29 08:30:06;;;;;;;6.13;2.63;;;24.90;83.10;;;;;;4895218;28;89680;-72
2022/06/29 08:32:32;;;;;;;4.78;2.13;;;25.20;79.80;;;;;;4898139;28;87975;-73
2022/06/29 08:35:00;;;;;;;5.07;2.45;;;25.60;78.90;;;;;;4897883;28;87176;-73
2022/06/29 08:37:27;;;;;;;8.00;2.47;;;26.70;77.90;;;;;;4899305;28;87097;-72
2022/06/29 08:39:53;;;;;;;6.32;2.40;;;27.70;73.60;;;;;;4898471;28;87050;-73
2022/06/29 08:42:21;;;;;;;6.55;2.50;;;30.20;69.00;;;;;;4898126;28;86873;-72
2022/06/29 08:44:52;;;;;;;5.68;2.30;;;31.60;62.10;;;;;;4898386;28;87307;-74
2022/06/29 08:47:18;;;;;;;5.68;2.80;;;32.70;57.60;;;;;;4890071;28;87394;-73
2022/06/29 08:49:44;;;;;;;8.07;3.03;;;34.30;57.60;;;;;;4898879;28;87304;-70
2022/06/29 08:52:11;;;;;;;6.13;2.95;;;35.80;51.80;;;;;;4900047;28;88164;-70
2022/06/29 08:54:41;;;;;;;4.95;2.00;;;34.50;53.70;;;;;;4900573;28;87469;-72
2022/06/29 08:57:08;;;;;;;5.97;3.42;;;34.80;50.90;;;;;;4900100;28;88143;-74
2022/06/29 08:59:37;;;;;;;7.07;3.58;;;35.20;49.80;;;;;;4901775;28;88032;-72
2022/06/29 09:02:03;;;;;;;;;;;35.30;48.90;;;;;;4901879;28;86932;-75
2022/06/29 09:04:29;;;;;;;4.10;2.78;;;36.00;49.00;;;;;;4897228;28;87383;-70
2022/06/29 09:06:56;;;;;;;5.18;3.45;;;37.60;46.00;;;;;;4900773;28;87202;-73
2022/06/29 09:09:23;;;;;;;5.07;3.13;;;37.10;46.80;;;;;;4901562;28;87811;-74
2022/06/29 09:11:53;;;;;;;4.55;3.15;;;35.70;46.10;;;;;;4902409;28;86891;-73
2022/06/29 09:14:21;;;;;;;4.38;3.03;;;36.90;47.30;;;;;;4899908;28;86283;-72
2022/06/29 09:16:58;;;;;;;4.93;2.95;;;38.80;46.90;;;;;;4899768;28;87029;-74
2022/06/29 09:19:34;;;;;;;2.90;1.80;;;38.10;43.00;;;;;;4900043;28;86757;-70
2022/06/29 09:21:59;;;;;;;3.88;3.25;;;37.70;42.30;;;;;;4897666;28;88410;-72
2022/06/29 09:24:33;;;;;;;4.07;3.47;;;38.00;45.70;;;;;;4896843;28;87114;-73
2022/06/29 09:27:00;;;;;;;4.43;3.83;;;38.70;43.80;;;;;;4893136;28;87350;-73
2022/06/29 09:29:42;;;;;;;3.40;3.10;;;38.50;44.50;;;;;;4899823;28;87433;-73
2022/06/29 09:32:08;;;;;;;;;;;39.00;44.70;;;;;;4900325;28;87017;-71
2022/06/29 09:34:39;;;;;;;6.95;3.97;;;39.70;41.10;;;;;;4900771;28;87145;-71
2022/06/29 09:37:07;;;;;;;4.43;3.47;;;38.70;42.60;;;;;;4900490;28;87503;-73
2022/06/29 09:39:34;;;;;;;5.50;3.30;;;38.50;41.40;;;;;;4901208;28;86286;-72
2022/06/29 09:42:01;;;;;;;5.85;3.88;;;39.20;41.70;;;;;;4899511;28;87061;-72
2022/06/29 09:44:27;;;;;;;6.38;3.35;;;39.70;40.60;;;;;;4899277;28;87070;-72
2022/06/29 09:46:56;;;;;;;4.75;3.90;;;37.80;42.80;;;;;;4899107;28;88557;-71
2022/06/29 09:49:27;;;;;;;5.78;2.85;;;36.00;43.60;;;;;;4899876;28;87870;-72
2022/06/29 09:51:57;;;;;;;5.10;2.85;;;33.90;46.80;;;;;;4899641;28;87158;-71
2022/06/29 09:54:40;;;;;;;4.80;1.75;;;32.00;48.80;;;;;;4899406;28;87103;-73
2022/06/29 09:57:08;;;;;;;5.15;3.17;;;30.80;51.30;;;;;;4898280;28;87395;-73
2022/06/29 10:02:43;;;;;;;4.90;2.92;;;32.00;51.80;;;;;;4900358;28;87022;-75
2022/06/29 10:05:13;;;;;;;10.32;2.72;;;32.50;50.30;;;;;;4896235;28;86245;-74
2022/06/29 10:07:44;;;;;;;5.22;3.25;;;32.80;50.80;;;;;;4899941;28;87338;-73
2022/06/29 10:10:15;;;;;;;4.68;3.42;;;32.90;50.40;;;;;;4904065;28;87023;-74
2022/06/29 10:16:05;;;;;;;5.80;3.78;;;35.50;47.90;;;;;;4890962;28;87035;-75
2022/06/29 10:18:43;;;;;;;5.60;3.80;;;35.20;47.50;;;;;;4896286;28;87918;-72
2022/06/29 10:21:21;;;;;;;6.40;4.25;;;34.30;48.20;;;;;;4896932;28;87877;-74
2022/06/29 10:23:54;;;;;;;5.22;3.65;;;33.80;49.10;;;;;;4892729;28;87256;-72
2022/06/29 10:26:38;;;;;;;5.40;3.83;;;32.20;50.90;;;;;;4893664;28;87695;-73
2022/06/29 10:29:09;;;;;;;7.55;4.13;;;30.70;51.30;;;;;;4895424;28;87575;-77
2022/06/29 10:31:53;;;;;;;4.20;3.40;;;30.60;53.40;;;;;;4895089;28;87598;-75
2022/06/29 10:34:28;;;;;;;5.63;3.05;;;29.40;57.00;;;;;;4894691;28;87107;-74
2022/06/29 10:37:07;;;;;;;4.93;3.65;;;29.30;59.30;;;;;;4898277;28;87624;-74
2022/06/29 10:39:35;;;;;;;5.57;3.22;;;29.10;56.40;;;;;;4893265;28;88227;-73
2022/06/29 10:45:03;;;;;;;5.75;2.22;;;28.20;60.20;;;;;;4894483;28;86316;-74
2022/06/29 10:47:30;;;;;;;7.68;2.22;;;28.30;59.80;;;;;;4893987;28;87052;-76
2022/06/29 10:50:20;;;;;;;7.63;2.13;;;27.90;63.40;;;;;;4897678;28;86895;-73
2022/06/29 10:52:47;;;;;;;4.20;1.80;;;28.20;58.70;;;;;;4894298;28;88198;-74
2022/06/29 10:55:13;;;;;;;3.00;1.95;;;28.30;59.70;;;;;;4902434;28;87500;-71
2022/06/29 10:57:44;;;;;;;7.85;2.33;;;28.20;58.30;;;;;;4893448;28;86999;-75
2022/06/29 11:00:40;;;;;;;3.20;1.90;;;28.20;59.60;;;;;;4892214;28;87777;-76
2022/06/29 11:03:17;;;;;;;5.47;1.98;;;27.80;55.50;;;;;;4887567;28;87745;-74
2022/06/29 11:14:02;;;;;;;4.90;2.55;;;27.60;56.60;;;;;;4895799;28;87120;-73
2022/06/29 11:16:36;;;;;;;2.58;1.55;;;27.20;57.00;;;;;;4893058;28;87329;-72
2022/06/29 11:19:04;;;;;;;4.50;0.70;;;27.50;60.60;;;;;;4893792;28;87184;-75
2022/06/29 11:21:30;;;;;;;3.85;1.63;;;27.40;58.00;;;;;;4893829;28;87590;-75
2022/06/29 11:24:04;;;;;;;5.32;2.35;;;27.60;57.40;;;;;;4898484;28;87273;-74
2022/06/29 11:26:34;;;;;;;3.38;1.90;;;27.40;57.80;;;;;;4897965;28;87068;-74
2022/06/29 11:29:01;;;;;;;4.65;2.45;;;27.60;57.90;;;;;;4898838;28;86915;-74
2022/06/29 11:31:27;;;;;;;3.05;2.08;;;27.90;56.70;;;;;;4896668;28;88755;-74
2022/06/29 11:33:54;;;;;;;3.03;1.83;;;27.90;58.80;;;;;;4898790;28;87761;-75
2022/06/29 11:36:24;;;;;;;4.38;1.73;;;28.30;59.10;;;;;;4898068;28;87171;-74
2022/06/29 11:39:03;;;;;;;4.47;2.50;;;28.50;58.50;;;;;;4898992;28;87592;-74
2022/06/29 11:44:30;;;;;;;4.50;2.47;;;28.30;58.20;;;;;;4900511;28;87206;-74
2022/06/29 11:46:56;;;;;;;5.18;0.93;;;27.90;55.20;;;;;;4898755;28;86986;-74
2022/06/29 11:49:36;;;;;;;3.42;1.92;;;28.40;58.10;;;;;;4897017;28;86753;-77
2022/06/29 11:52:08;;;;;;;3.88;2.00;;;28.80;58.00;;;;;;4896978;28;87553;-75
2022/06/29 11:54:49;;;;;;;4.25;2.08;;;28.70;58.50;;;;;;4894239;28;87167;-74
2022/06/29 11:57:17;;;;;;;6.07;1.80;;;28.20;56.80;;;;;;4897393;28;88667;-75
2022/06/29 11:59:46;;;;;;;3.88;2.15;;;28.10;57.40;;;;;;4897378;28;87358;-74
2022/06/29 12:02:13;;;;;;;3.47;0.90;;;28.10;57.30;;;;;;4899189;28;87257;-74
2022/06/29 12:04:40;;;;;;;4.35;2.25;;;28.10;57.70;;;;;;4896994;28;87282;-74
2022/06/29 12:07:17;;;;;;;3.25;1.83;;;27.80;57.60;;;;;;4897663;28;87275;-75
2022/06/29 12:09:48;;;;;;;8.18;1.75;;;27.40;57.40;;;;;;4896987;28;87161;-73
2022/06/29 12:12:14;;;;;;;2.25;1.00;;;27.30;63.90;;;;;;4898294;28;87442;-74
2022/06/29 12:14:41;;;;;;;4.82;1.95;;;26.90;59.80;;;;;;4896788;28;87853;-74
2022/06/29 12:17:09;;;;;;;8.27;2.05;;;27.20;60.20;;;;;;4898156;28;87008;-75
2022/06/29 12:19:35;;;;;;;2.63;1.65;;;27.40;62.40;;;;;;4900824;28;86975;-72
2022/06/29 12:22:01;;;;;;;2.78;1.80;;;27.70;60.20;;;;;;4896668;28;88023;-74
2022/06/29 12:24:28;;;;;;;3.70;1.40;;;27.60;58.10;;;;;;4895646;28;87906;-74
2022/06/29 12:26:54;;;;;;;6.63;2.45;;;27.80;59.50;;;;;;4900487;28;87028;-74
2022/06/29 12:29:20;;;;;;;4.38;2.70;;;27.70;57.90;;;;;;4901483;28;87231;-74
2022/06/29 12:31:46;;;;;;;9.02;2.13;;;28.10;58.10;;;;;;4900715;28;87573;-75
2022/06/29 12:34:13;;;;;;;5.22;2.00;;;28.40;59.70;;;;;;4899906;28;87311;-73
2022/06/29 12:36:40;;;;;;;4.07;1.75;;;28.70;59.50;;;;;;4904037;28;87227;-73
2022/06/29 12:39:06;;;;;;;5.32;2.17;;;29.00;57.80;;;;;;4902018;28;86205;-73
2022/06/29 12:41:33;;;;;;;5.57;2.03;;;28.90;58.00;;;;;;4900379;28;87424;-73
2022/06/29 12:44:02;;;;;;;7.05;2.40;;;29.00;57.90;;;;;;4900431;28;87481;-75
2022/06/29 12:46:32;;;;;;;5.10;2.55;;;29.00;57.90;;;;;;4897641;28;88766;-74
2022/06/29 12:48:58;;;;;;;5.22;2.92;;;28.80;58.50;;;;;;4899780;28;87105;-74
2022/06/29 12:51:24;;;;;;;3.35;1.17;;;28.30;58.50;;;;;;4900940;28;88140;-74
2022/06/29 12:53:50;;;;;;;4.05;1.92;;;28.60;57.70;;;;;;4900486;28;87420;-74
2022/06/29 12:56:17;;;;;;;2.25;1.10;;;28.30;59.10;;;;;;4900338;28;87030;-74
2022/06/29 12:58:43;;;;;;;5.80;2.22;;;28.30;57.70;;;;;;4897961;28;87372;-73
2022/06/29 13:01:08;;;;;;;4.40;2.38;;;28.30;59.20;;;;;;4900160;28;87712;-74
2022/06/29 13:03:36;;;;;;;4.63;2.20;;;28.20;59.00;;;;;;4898329;28;86766;-75
2022/06/29 13:06:01;;;;;;;5.03;2.08;;;28.40;58.90;;;;;;4893898;28;87082;-74
2022/06/29 13:08:27;;;;;;;3.75;2.55;;;28.50;58.20;;;;;;4894603;28;87709;-74
2022/06/29 13:10:53;;;;;;;4.70;1.38;;;28.60;59.20;;;;;;4899521;28;88979;-73
2022/06/29 13:13:19;;;;;;;6.07;2.45;;;28.50;56.20;;;;;;4898370;28;87828;-74
2022/06/29 13:15:45;;;;;;;4.60;2.47;;;28.40;58.50;;;;;;4901119;28;87010;-74
2022/06/29 13:18:11;;;;;;;3.67;2.13;;;28.30;61.60;;;;;;4900143;28;87036;-74
2022/06/29 13:20:36;;;;;;;3.70;1.45;;;27.90;59.30;;;;;;4900183;28;87190;-73
2022/06/29 13:23:03;;;;;;;3.47;2.45;;;27.40;59.30;;;;;;4899888;28;87732;-73
2022/06/29 13:25:28;;;;;;;5.18;2.33;;;27.00;60.10;;;;;;4900204;28;86987;-73
2022/06/29 13:27:54;;;;;;;4.72;1.50;;;26.80;60.90;;;;;;4901737;28;86932;-74
2022/06/29 13:30:20;;;;;;;2.97;2.08;;;26.50;60.50;;;;;;4900611;28;87730;-72
2022/06/29 13:32:45;;;;;;;4.32;1.85;;;26.50;60.50;;;;;;4899615;28;87052;-74
2022/06/29 13:35:11;;;;;;;5.95;2.10;;;26.30;59.20;;;;;;4899053;28;88383;-73
2022/06/29 13:37:37;;;;;;;5.43;1.50;;;26.10;61.70;;;;;;4899737;28;87160;-73
2022/06/29 13:40:03;;;;;;;5.95;2.10;;;26.60;62.00;;;;;;4900029;28;87126;-75
2022/06/29 13:42:29;;;;;;;3.63;1.77;;;26.60;61.20;;;;;;4899349;28;87129;-74
2022/06/29 13:44:55;;;;;;;4.22;1.10;;;26.30;62.30;;;;;;4901930;28;87071;-73
2022/06/29 13:47:20;;;;;;;2.92;1.70;;;26.40;65.00;;;;;;4899463;28;86896;-75
2022/06/29 13:49:46;;;;;;;6.55;2.40;;;26.30;61.40;;;;;;4900529;28;87678;-74
2022/06/29 13:52:12;;;;;;;4.93;2.17;;;26.50;61.20;;;;;;4898816;28;86898;-74
2022/06/29 13:54:40;;;;;;;3.38;1.10;;;26.70;60.70;;;;;;4899351;28;86901;-74
2022/06/29 13:57:06;;;;;;;2.38;0.95;;;26.40;60.20;;;;;;4899863;28;86976;-74
2022/06/29 13:59:32;;;;;;;6.97;1.88;;;26.50;62.10;;;;;;4895649;28;89169;-74
2022/06/29 14:02:00;;;;;;;6.50;1.80;;;26.60;63.40;;;;;;4904857;28;87148;-74
2022/06/29 14:04:26;;;;;;;6.38;2.63;;;26.80;63.60;;;;;;4900135;28;86962;-74
2022/06/29 14:06:52;;;;;;;3.75;2.22;;;27.00;63.40;;;;;;4900144;28;87202;-73
2022/06/29 14:09:18;;;;;;;4.75;1.98;;;26.90;61.80;;;;;;4899062;28;87055;-73
2022/06/29 14:11:43;;;;;;;2.47;1.90;;;26.70;61.30;;;;;;4898348;28;87279;-74
2022/06/29 14:14:09;;;;;;;3.67;1.63;;;26.70;61.90;;;;;;4897909;28;86740;-75
2022/06/29 14:16:35;;;;;;;3.95;2.38;;;26.80;65.40;;;;;;4899404;28;86437;-73
2022/06/29 14:19:00;;;;;;;6.97;1.83;;;26.90;63.00;;;;;;4899115;28;87262;-75
2022/06/29 14:21:26;;;;;;;3.70;1.58;;;26.80;61.20;;;;;;4899643;28;87034;-73
2022/06/29 14:23:52;;;;;;;4.65;1.73;;;26.90;60.10;;;;;;4898846;28;88051;-73
2022/06/29 14:26:17;;;;;;;5.57;2.10;;;26.80;61.80;;;;;;4906089;28;87090;-76
2022/06/29 14:28:43;;;;;;;5.88;1.80;;;27.00;61.30;;;;;;4899258;28;87707;-73
2022/06/29 14:31:09;;;;;;;4.85;2.17;;;27.10;61.50;;;;;;4899550;28;87168;-75
2022/06/29 14:33:35;;;;;;;8.13;1.80;;;26.90;62.00;;;;;;4899592;28;87061;-75
2022/06/29 14:36:01;;;;;;;3.58;2.08;;;26.40;60.60;;;;;;4905585;28;87120;-74
2022/06/29 14:38:27;;;;;;;3.40;2.00;;;26.50;62.60;;;;;;4907385;28;87588;-73
2022/06/29 14:40:52;;;;;;;4.78;2.05;;;26.50;62.00;;;;;;4897596;28;86755;-75
2022/06/29 14:43:18;;;;;;;3.83;1.83;;;26.40;62.90;;;;;;4897710;28;86990;-75
2022/06/29 14:45:44;;;;;;;4.50;1.77;;;26.60;63.90;;;;;;4897058;28;87367;-74
2022/06/29 14:48:10;;;;;;;5.32;2.58;;;26.50;63.80;;;;;;4898285;28;88636;-74
2022/06/29 14:50:36;;;;;;;5.47;1.95;;;26.80;64.10;;;;;;4899390;28;87833;-74
2022/06/29 14:53:02;;;;;;;3.22;2.28;;;27.00;63.80;;;;;;4899143;28;87122;-74
2022/06/29 14:55:27;;;;;;;6.50;2.03;;;27.30;63.20;;;;;;4897802;28;87055;-74
2022/06/29 14:57:53;;;;;;;5.30;2.53;;;27.30;62.90;;;;;;4894649;28;87425;-73
2022/06/29 15:00:19;;;;;;;3.08;2.25;;;27.50;61.40;;;;;;4892103;28;88510;-75
2022/06/29 15:02:46;;;;;;;4.78;2.35;;;27.40;61.40;;;;;;4896319;28;88025;-74
2022/06/29 15:05:12;;;;;;;6.13;2.42;;;27.70;62.20;;;;;;4899977;28;86454;-74
2022/06/29 15:07:38;;;;;;;8.40;3.22;;;27.80;60.40;;;;;;4896935;28;87257;-74
2022/06/29 15:10:04;;;;;;;3.90;2.25;;;27.10;60.90;;;;;;4899078;28;87152;-73
2022/06/29 15:12:30;;;;;;;3.75;1.90;;;26.80;61.40;;;;;;4898904;28;88264;-74
2022/06/29 15:14:56;;;;;;;5.78;1.92;;;27.30;61.40;;;;;;4891930;28;87178;-74
2022/06/29 15:17:22;;;;;;;4.65;1.88;;;27.50;60.10;;;;;;4897072;28;87125;-74
2022/06/29 15:19:48;;;;;;;6.43;2.08;;;27.40;62.40;;;;;;4898328;28;87431;-74
2022/06/29 15:22:14;;;;;;;3.85;1.67;;;27.40;60.60;;;;;;4898643;28;87073;-73
2022/06/29 15:24:40;;;;;;;4.15;2.08;;;27.40;62.90;;;;;;4894673;28;86758;-75
2022/06/29 15:27:05;;;;;;;5.43;2.28;;;27.40;63.20;;;;;;4897959;28;87185;-74
2022/06/29 15:29:31;;;;;;;3.42;1.90;;;27.40;61.40;;;;;;4900215;28;87760;-74
2022/06/29 15:31:59;;;;;;;3.30;1.20;;;27.40;61.90;;;;;;4898048;28;87130;-73
2022/06/29 15:39:55;;;;;;;3.33;2.25;;;27.20;62.90;;;;;;4898087;28;88060;-74
2022/06/29 15:42:21;;;;;;;4.05;1.88;;;27.10;63.10;;;;;;4901765;28;87023;-74
2022/06/29 15:44:47;;;;;;;5.60;1.85;;;27.10;62.30;;;;;;4899088;28;87181;-73
2022/06/29 15:47:13;;;;;;;4.28;2.10;;;27.20;60.90;;;;;;4897982;28;87113;-74
2022/06/29 15:49:38;;;;;;;4.93;2.38;;;26.70;60.00;;;;;;4899611;28;88213;-74
2022/06/29 15:52:05;;;;;;;5.28;1.80;;;26.90;62.20;;;;;;4897658;28;87392;-74
2022/06/29 15:57:16;;;;;;;4.93;2.25;;;26.90;60.90;;;;;;4893623;28;87875;-74
2022/06/29 15:59:42;;;;;;;4.47;1.48;;;26.80;61.10;;;;;;4900308;28;86797;-74
2022/06/29 16:02:08;;;;;;;5.40;1.90;;;26.90;61.00;;;;;;4898939;28;87706;-74
2022/06/29 16:04:34;;;;;;;6.75;1.52;;;26.90;62.20;;;;;;4899994;28;86650;-73
2022/06/29 16:07:00;;;;;;;3.65;1.52;;;27.10;62.30;;;;;;4898398;28;87787;-73
2022/06/29 16:09:25;;;;;;;4.68;1.90;;;27.10;62.50;;;;;;4899763;28;88873;-74